Main page
METAR-TAF:

METAR-TAF

Airports :

Lille Airport

Lille, France

latitude: 50-34N, longitude: 003-06E, elevation: 48 m

Current weather observation

The report was made 10 minutes ago, at 05:30 UTC
Wind 6 kt from the North/Northeast, varying between North and East/Northeast
Temperature 18°C
Humidity 77%
Pressure 1020 hPa
Visibility: 5000 m
mist

METAR: LFQQ 150530Z AUTO 03006KT 360V070 5000 BR NSC 18/14 Q1020 NOSIG

Time: 07:40 (05:40 UTC)

Forecast

The report was made 40 minutes ago, at 05:00 UTC
Forecast valid from 15 at 06 UTC to 16 at 12 UTC
Wind 7 kt from the Northeast
Visibility: 5000 m
mist
Becoming
from 15 at 06 UTC to 15 at 08 UTC
Visibility 10 km or more
no clouds below 1500 m and no cumulonimbus
Becoming
from 16 at 08 UTC to 16 at 10 UTC
Wind 10 kt from the South/Southwest

TAF: LFQQ 150500Z 1506/1612 05007KT 5000 BR NSC BECMG 1506/1508 CAVOK BECMG 1608/1610 20010KT

Weather observations and forecasts of more than 4000 airports (METAR and TAF reports).

The available stations are represented by yellow and red dots on the map.

Hover mouse over dot to see the name of the station.

Then click to see weather observations and forecasts.

To change the map : click on the green buttons with a black cross to zoom in, on the green button with a dash to zoom out, or on the green arrows for adjacent maps.


METAR-TAF: